Home > Products > Valid Products > MTR

000
SAUS46 KPDT 010813
MTRMEH
SPECI KMEH 010811Z AUTO 00000KT 10SM BKN022 BKN055 07/04 A3012 RMK
AO2 T00670039





000
SAUS46 KPDT 010756
MTRMEH
METAR KMEH 010756Z AUTO 00000KT 10SM SCT020 SCT026 06/04 A3012 RMK
AO2 SLP199 T00610039 401440061





000
SAUS46 KPDT 010656
MTRMEH
METAR KMEH 010656Z AUTO VRB03KT 10SM SCT045 OVC055 08/04 A3011 RMK
AO2 SLP196 T00780039





000
SAUS46 KPDT 010556
MTRMEH
METAR KMEH 010556Z AUTO VRB03KT 10SM BKN046 OVC065 08/04 A3010 RMK
AO2 SLP193 60003 T00780039 10094 20072 53013





000
SAUS46 KPDT 010456
MTRMEH
METAR KMEH 010456Z AUTO VRB03KT 10SM BKN045 OVC055 08/04 A3008 RMK
AO2 SLP188 T00830044





000
SAUS46 KPDT 010356
MTRMEH
METAR KMEH 010356Z AUTO VRB03KT 10SM SCT048 BKN070 08/04 A3007 RMK
AO2 SLP187 T00830044





000
SAUS46 KPDT 010256
MTRMEH
METAR KMEH 010256Z AUTO 00000KT 10SM SCT049 OVC075 08/05 A3006 RMK
AO2 RAE01 SLP182 P0000 60003 T00830050 53006





000
SAUS46 KPDT 010156
MTRMEH
METAR KMEH 010156Z AUTO 00000KT 10SM -RA BKN040 OVC055 08/07 A3004
RMK AO2 RAB50 SLP178 P0000 T00780067





000
SAUS46 KPDT 010056
MTRMEH
METAR KMEH 010056Z AUTO 00000KT 10SM FEW038 SCT048 BKN070 08/06
A3004 RMK AO2 RAB34E51 SLP177 P0003 T00780056





000
SAUS46 KPDT 010041
MTRMEH
SPECI KMEH 010041Z AUTO VRB03KT 2 1/2SM -RA SCT037 BKN050 OVC060
08/05 A3004 RMK AO2 RAB34 P0003 T00830050





000
SAUS46 KPDT 302356
MTRMEH
METAR KMEH 302356Z AUTO 00000KT 10SM FEW046 SCT060 SCT100 09/06
A3004 RMK AO2 RAB22E38 SLP174 P0001 60001 T00940061 10144 20089
53001





000
SAUS46 KPDT 302256
MTRMEH
METAR KMEH 302256Z AUTO VRB04KT 10SM FEW045 SCT070 12/02 A3003 RMK
AO2 RAE01B23E40 SLP169 P0000 T01170022





000
SAUS46 KPDT 302156
MTRMEH
METAR KMEH 302156Z AUTO 00000KT 10SM -RA SCT048 BKN060 BKN085 12/03
A3003 RMK AO2 RAB46 SLP168 P0000 T01170033





000
SAUS46 KPDT 302056
MTRMEH
METAR KMEH 302056Z AUTO 10SM FEW038 SCT065 14/03 A3004 RMK AO2
SLP166 T01390033 50000





000
SAUS46 KPDT 301956
MTRMEH
METAR KMEH 301956Z AUTO VRB05KT 10SM FEW034 SCT042 BKN050 11/03
A3005 RMK AO2 SLP171 T01110033





000
SAUS46 KPDT 301856
MTRMEH
METAR KMEH 301856Z AUTO VRB06KT 10SM FEW025 SCT034 BKN055 10/04
A3004 RMK AO2 SLP170 T01000039





000
SAUS46 KPDT 301756
MTRMEH
METAR KMEH 301756Z AUTO VRB04KT 10SM FEW021 BKN035 BKN041 11/05
A3003 RMK AO2 SLP167 T01060050 10111 20067 51003





000
SAUS46 KPDT 301731
MTRMEH
SPECI KMEH 301731Z AUTO 00000KT 10SM FEW019 SCT032 BKN040 10/05
A3004 RMK AO2 T01000050





000
SAUS46 KPDT 301708
MTRMEH
SPECI KMEH 301708Z AUTO VRB05KT 10SM FEW020 BKN028 OVC034 09/05
A3004 RMK AO2 T00890050





000
SAUS46 KPDT 301656
MTRMEH
METAR KMEH 301656Z AUTO VRB04KT 10SM SCT025 OVC031 09/05 A3004 RMK
AO2 SLP167 T00890050





000
SAUS46 KPDT 301556
MTRMEH
METAR KMEH 301556Z AUTO VRB04KT 10SM SCT018 OVC025 07/04 A3003 RMK
AO2 SLP168 T00720044





000
SAUS46 KPDT 301501 COR
MTRMEH
METAR KMEH 301456Z AUTO 10SM SCT018 BKN027 OVC060 07/04 A3002 RMK
AO2 SLP163 T00720044 53012





000
SAUS46 KPDT 301458 COR
MTRMEH
METAR KMEH 301456Z AUTO 10SM SCT018 BKN027 OVC060 07/04 A3002 RMK
AO2 SLP163 T00720044 53012





000
SAUS46 KPDT 301457
MTRMEH
METAR KMEH 301456Z AUTO 10SM SCT018 BKN027 OVC060 07/04 A3002 RMK
AO2 SLP163 T00720044 53012





000
SAUS46 KPDT 301433
MTRMEH
SPECI KMEH 301433Z AUTO 10SM FEW016 BKN036 OVC055 07/04 A3002 RMK
AO2 T00720044





000
SAUS46 KPDT 301356
MTRMEH
METAR KMEH 301356Z AUTO VRB03KT 10SM SCT018 BKN026 OVC033 07/04
A3001 RMK AO2 SLP156 T00720044





000
SAUS46 KPDT 301320
MTRMEH
SPECI KMEH 301320Z AUTO VRB04KT 10SM SCT018 BKN025 OVC039 07/04
A3000 RMK AO2 T00670044





000
SAUS46 KPDT 301256
MTRMEH
METAR KMEH 301256Z AUTO 10SM FEW018 FEW023 OVC035 07/04 A2999 RMK
AO2 SLP150 T00670044





000
SAUS46 KPDT 301251
MTRMEH
SPECI KMEH 301247Z AUTO 00000KT 10SM FEW018 SCT023 OVC033 07/04
A2999 RMK AO2 T00670044





000
SAUS46 KPDT 301157
MTRMEH
METAR KMEH 301156Z AUTO VRB03KT 10SM BKN024 OVC029 07/04 A2998 RMK
AO2 SLP145 60036 70045 T00720044 10106 20067 53002





000
SAUS46 KPDT 301056
MTRMEH
METAR KMEH 301056Z AUTO 28007KT 230V010 10SM OVC027 07/04 A2998 RMK
AO2 SLP139 T00720044





000
SAUS46 KPDT 301046
MTRMEH
SPECI KMEH 301045Z AUTO VRB04KT 10SM BKN028 OVC055 07/05 A2998 RMK
AO2 T00720050





000
SAUS46 KPDT 300956
MTRMEH
METAR KMEH 300956Z AUTO VRB03KT 10SM SCT035 BKN046 OVC060 08/06
A2998 RMK AO2 RAE25 SLP138 P0006 T00780056





000
SAUS46 KPDT 300934
MTRMEH
SPECI KMEH 300933Z AUTO VRB03KT 10SM FEW011 SCT025 OVC034 08/06
A2998 RMK AO2 RAE25 P0006 T00780061





000
SAUS46 KPDT 300919
MTRMEH
SPECI KMEH 300918Z AUTO VRB06KT 7SM -RA FEW011 BKN019 OVC032 08/07
A2998 RMK AO2 P0006 T00830067





000
SAUS46 KPDT 300909
MTRMEH
SPECI KMEH 300909Z AUTO VRB05KT 3SM RA BR SCT009 BKN013 OVC026 08/07
A2998 RMK AO2 P0004 T00780067





000
SAUS46 KPDT 300858
MTRMEH
METAR KMEH 300856Z AUTO VRB03KT 2SM RA BR SCT009 BKN015 OVC029 08/07
A2997 RMK AO2 RAB03 SLP139 P0014 60030 T00780067 53007





000
SAUS46 KPDT 300846
MTRMEH
SPECI KMEH 300846Z AUTO 00000KT 4SM RA BR SCT009 BKN014 OVC029 08/07
A2998 RMK AO2 RAB03 P0011 T00780067





000
SAUS46 KPDT 300756
MTRMEH
METAR KMEH 300756Z AUTO VRB04KT 10SM OVC020 09/08 A2997 RMK AO2
RAE0659B32E50 SLP134 P0000 T00940078 402000094





000
SAUS46 KPDT 300745
MTRMEH
SPECI KMEH 300745Z AUTO VRB06G17KT 10SM -RA BKN020 BKN024 OVC035
09/08 A2996 RMK AO2 RAE0659B32 P0000 T00940078





000
SAUS46 KPDT 300725
MTRMEH
SPECI KMEH 300725Z AUTO VRB05KT 10SM SCT012 SCT021 OVC033 10/09
A2996 RMK AO2 RAE0659 P0000 T01000089





000
SAUS46 KPDT 300704
MTRMEH
SPECI KMEH 300703Z AUTO VRB06KT 10SM BKN014 OVC020 11/09 A2995 RMK
AO2 RAE0659 P0000 T01060094





000
SAUS46 KPDT 300656
MTRMEH
METAR KMEH 300656Z AUTO VRB03KT 7SM -RA FEW010 OVC016 11/09 A2995
RMK AO2 SLP132 P0016 T01060094





000
SAUS46 KPDT 300646
MTRMEH
SPECI KMEH 300646Z AUTO VRB03KT 4SM RA BR SCT008 OVC018 11/10 A2995
RMK AO2 P0014 T01060100





000
SAUS46 KPDT 300637
MTRMEH
SPECI KMEH 300637Z AUTO VRB04KT 4SM RA BR BKN008 BKN014 OVC022 11/09
A2995 RMK AO2 P0012 T01060094





000
SAUS46 KPDT 300632
MTRMEH
SPECI KMEH 300630Z AUTO VRB03KT 3SM RA BR SCT008 OVC011 11/10 A2995
RMK AO2 P0010 T01060100





000
SAUS46 KPDT 300622
MTRMEH
SPECI KMEH 300622Z AUTO VRB03KT 2SM RA BR BKN008 OVC013 11/09 A2995
RMK AO2 P0008 T01060094





000
SAUS46 KPDT 300556
MTRMEH
METAR KMEH 300556Z AUTO 25003KT 6SM -RA BR BKN010 BKN014 OVC035
11/10 A2995 RMK AO2 SLP132 P0008 60009 T01060100 10172 20106 53008





000
SAUS46 KPDT 300544
MTRMEH
SPECI KMEH 300543Z AUTO VRB05KT 3SM RA BR BKN010 BKN020 OVC028 11/09
A2995 RMK AO2 P0005 T01060094





000
SAUS46 KPDT 300458
MTRMEH
METAR KMEH 300456Z AUTO 00000KT 10SM -RA OVC028 12/08 A2994 RMK AO2
RAE06B53 SLP126 P0000 T01220083





000
SAUS46 KPDT 300357
MTRMEH
METAR KMEH 300356Z AUTO 00000KT 10SM -RA SCT033 BKN044 BKN060 12/09
A2993 RMK AO2 RAB37 SLP126 P0001 T01170094





000
SAUS46 KPDT 300257
MTRMEH
METAR KMEH 300256Z AUTO 00000KT 10SM FEW070 FEW090 13/06 A2993 RMK
AO2 SLP125 T01330056 51006





000
SAUS46 KPDT 300156
MTRMEH
METAR KMEH 300156Z AUTO VRB04KT 10SM FEW120 14/05 A2992 RMK AO2
SLP121 T01440050





000
SAUS46 KPDT 300056
MTRMEH
METAR KMEH 300056Z AUTO VRB03KT 10SM OVC100 16/04 A2992 RMK AO2
SLP119 T01560044





000
SAUS46 KPDT 292357
MTRMEH
METAR KMEH 292356Z AUTO VRB04KT 10SM FEW090 FEW120 17/04 A2991 RMK
AO2 SLP113 T01720044 10200 20144 55001





000
SAUS46 KPDT 292257
MTRMEH
METAR KMEH 292256Z AUTO 31007KT 270V020 10SM CLR 19/04 A2990 RMK AO2
SLP107 T01890039





000
SAUS46 KPDT 292156
MTRMEH
METAR KMEH 292156Z AUTO VRB03KT 10SM CLR 19/03 A2990 RMK AO2 SLP109
T01940033





000
SAUS46 KPDT 292056
MTRMEH
METAR KMEH 292056Z AUTO VRB04KT 10SM CLR 19/05 A2991 RMK AO2 SLP112
T01890050 58008





000
SAUS46 KPDT 291957
MTRMEH
METAR KMEH 291956Z AUTO 24007KT 200V280 10SM CLR 18/06 A2993 RMK AO2
SLP120 T01780061





000
SAUS46 KPDT 291857
MTRMEH
METAR KMEH 291856Z AUTO VRB03KT 10SM SCT060 OVC110 14/07 A2994 RMK
AO2 SLP127 T01440067





000
SAUS46 KPDT 291757
MTRMEH
METAR KMEH 291756Z AUTO 00000KT 10SM FEW060 OVC100 14/06 A2994 RMK
AO2 SLP126 60000 T01440061 10144 20106 53001





000
SAUS46 KPDT 291656
MTRMEH
METAR KMEH 291656Z AUTO VRB03KT 10SM BKN070 OVC085 14/07 A2993 RMK
AO2 RAB07E41 SLP125 P0000 T01390067





000
SAUS46 KPDT 291556
MTRMEH
METAR KMEH 291556Z AUTO 00000KT 10SM OVC048 12/08 A2994 RMK AO2
RAB02E13 SLP127 P0000 T01220078





000
SAUS46 KPDT 291456
MTRMEH
METAR KMEH 291456Z AUTO 00000KT 10SM OVC055 11/08 A2994 RMK AO2
SLP128 T01110078 51007





000
SAUS46 KPDT 291357
MTRMEH
METAR KMEH 291356Z AUTO 00000KT 10SM OVC060 11/07 A2993 RMK AO2
SLP124 T01060072





000
SAUS46 KPDT 291257
MTRMEH
METAR KMEH 291256Z AUTO 00000KT 10SM OVC055 11/07 A2992 RMK AO2
SLP122 T01110072





000
SAUS46 KPDT 291156
MTRMEH
METAR KMEH 291156Z AUTO 00000KT 10SM OVC050 11/07 A2991 RMK AO2
SLP118 T01110072 10122 20111 56004





000
SAUS46 KPDT 291056
MTRMEH
METAR KMEH 291056Z AUTO 00000KT 10SM OVC050 11/07 A2992 RMK AO2
SLP117 T01110072





000
SAUS46 KPDT 290956
MTRMEH
METAR KMEH 290956Z AUTO 00000KT 10SM OVC050 12/07 A2992 RMK AO2
SLP119 T01170072





000
SAUS46 KPDT 290856
MTRMEH
METAR KMEH 290856Z AUTO 00000KT 10SM OVC050 12/07 A2993 RMK AO2
SLP121 T01170072 58007





000
SAUS46 KPDT 290756
MTRMEH
METAR KMEH 290756Z AUTO 00000KT 10SM FEW050 OVC060 12/07 A2993 RMK
AO2 SLP122 T01170072 401720022





000
SAUS46 KPDT 290656
MTRMEH
METAR KMEH 290656Z AUTO 00000KT 10SM OVC060 12/07 A2995 RMK AO2
SLP128 T01170067





000
SAUS46 KPDT 290556
MTRMEH
METAR KMEH 290556Z AUTO 00000KT 10SM OVC060 12/07 A2995 RMK AO2
SLP132 T01220067 10156 20122 58004





000
SAUS46 KPDT 290456
MTRMEH
METAR KMEH 290456Z AUTO 00000KT 10SM BKN050 OVC060 13/07 A2996 RMK
AO2 SLP134 T01280067





000
SAUS46 KPDT 290356
MTRMEH
METAR KMEH 290356Z AUTO 00000KT 10SM OVC050 13/06 A2996 RMK AO2
SLP141 T01280061





000
SAUS46 KPDT 290258
MTRMEH
METAR KMEH 290256Z AUTO 00000KT 10SM OVC055 13/06 A2996 RMK AO2
SLP148 T01330061 58003





000
SAUS46 KPDT 290156
MTRMEH
METAR KMEH 290156Z AUTO 00000KT 10SM OVC060 14/06 A2997 RMK AO2
SLP147 T01440061





000
SAUS46 KPDT 290056
MTRMEH
METAR KMEH 290056Z AUTO 00000KT 10SM FEW050 SCT060 15/06 A2998 RMK
AO2 SLP150 T01500061





000
SAUS46 KPDT 282356
MTRMEH
METAR KMEH 282356Z AUTO VRB03KT 10SM BKN048 16/06 A2997 RMK AO2
SLP149 T01560056 10172 20133 50000





000
SAUS46 KPDT 282256
MTRMEH
METAR KMEH 282256Z AUTO VRB04KT 10SM OVC047 16/06 A2998 RMK AO2
SLP148 T01610061





000
SAUS46 KPDT 282156
MTRMEH
METAR KMEH 282156Z AUTO 27005KT 10SM OVC046 16/06 A2998 RMK AO2
SLP149 T01610061





000
SAUS46 KPDT 282056
MTRMEH
METAR KMEH 282056Z AUTO VRB04KT 10SM CLR 16/06 A2997 RMK AO2 SLP144
T01610061 56006





000
SAUS46 KPDT 281956
MTRMEH
METAR KMEH 281956Z AUTO 27006KT 10SM CLR 16/07 A2998 RMK AO2 SLP145
T01610067





000
SAUS46 KPDT 281856
MTRMEH
METAR KMEH 281856Z AUTO VRB03KT 10SM FEW065 16/07 A2999 RMK AO2
SLP148 T01610072





000
SAUS46 KPDT 281758
MTRMEH
METAR KMEH 281756Z AUTO VRB03KT 10SM CLR 13/07 A2999 RMK AO2 SLP153
T01330072 10139 20022 51002





000
SAUS46 KPDT 281656
MTRMEH
METAR KMEH 281656Z AUTO 28004KT 10SM CLR 13/07 A2999 RMK AO2 SLP152
T01280072





000
SAUS46 KPDT 281556
MTRMEH
METAR KMEH 281556Z AUTO 00000KT 10SM CLR 08/06 A2999 RMK AO2 SLP156
T00830056





000
SAUS46 KPDT 281456
MTRMEH
METAR KMEH 281456Z AUTO 00000KT 10SM CLR 03/02 A2999 RMK AO2 SLP162
T00330022 50001





000
SAUS46 KPDT 281357
MTRMEH
METAR KMEH 281356Z AUTO 00000KT 10SM CLR 03/02 A2999 RMK AO2 SLP160
T00280017





000
SAUS46 KPDT 281300
MTRMEH
METAR KMEH 281256Z AUTO 00000KT 10SM CLR 03/02 A2998 RMK AO2 SLP155
T00280022





000
SAUS46 KPDT 281156
MTRMEH
METAR KMEH 281156Z AUTO 00000KT 10SM CLR 03/02 A2998 RMK AO2 SLP154
T00330022 10078 20028 56007





000
SAUS46 KPDT 281056
MTRMEH
METAR KMEH 281056Z AUTO 00000KT 10SM CLR 04/03 A2999 RMK AO2 SLP155
T00390028





000
SAUS46 KPDT 281000
MTRMEH
METAR KMEH 280956Z AUTO 00000KT 10SM CLR 04/03 A2999 RMK AO2 SLP156
T00390033





000
SAUS46 KPDT 280856
MTRMEH
METAR KMEH 280856Z AUTO 00000KT 10SM CLR 06/04 A3001 RMK AO2 SLP160
T00560039 55005





    US Dept of Commerce
    National Oceanic and Atmospheric Administration
    National Weather Service
    1325 East West Highway
    Silver Spring, MD 20910
    Page Author: NWS Internet Services Team
Disclaimer
Information Quality
Credits
Glossary
Privacy Policy
Freedom of Information Act (FOIA)
About Us
Career Opportunities